Terminal Aerodrome Forecast
Issued by NWS Topeka, KS

Home | Current Version | Previous Version | Text Only | Print | Product List | Glossary On
Versions: 1 2 3 4 5 6 7 8 9 10 11 12 13 14 15 16 17 18 19 20
294
FTUS43 KTOP 221841 AAA
TAFTOP
TAF AMD
KTOP 221841Z 2219/2318 21010KT P6SM -RA VCTS BKN060CB
      TEMPO 2221/2223 5SM RA BKN035
     FM230000 20004KT P6SM SCT100
     FM230900 31006KT P6SM -SHRA BKN025
     FM231200 32009KT P6SM FEW015 BKN025=

USA.gov is the U.S. government's official web portal to all federal, state and local government web resources and services.